createdAt,value
2022-10-12T00:02:26.594Z,95.40
2022-10-12T00:05:35.034Z,95.09
2022-10-12T00:08:42.981Z,95.24
2022-10-12T00:11:50.986Z,95.44
2022-10-12T00:14:58.721Z,96.01
2022-10-12T00:18:07.004Z,96.62
2022-10-12T00:21:15.135Z,97.00
2022-10-12T00:24:23.102Z,96.79
2022-10-12T00:27:31.709Z,96.62
2022-10-12T00:30:39.822Z,96.31
2022-10-12T00:33:47.959Z,96.21
2022-10-12T00:36:56.603Z,95.90
2022-10-12T00:40:04.681Z,95.84
2022-10-12T00:43:12.520Z,96.88
2022-10-12T00:46:20.697Z,97.09
2022-10-12T00:49:28.109Z,96.78
2022-10-12T00:52:36.473Z,96.67
2022-10-12T00:55:44.713Z,96.67
2022-10-12T00:58:52.222Z,96.88
2022-10-12T01:02:00.301Z,97.25
2022-10-12T01:05:08.841Z,97.25
2022-10-12T01:08:16.310Z,97.25
2022-10-12T01:11:24.333Z,97.19
2022-10-12T01:14:32.357Z,97.19
2022-10-12T01:17:40.601Z,97.91
2022-10-12T01:20:49.001Z,98.64
2022-10-12T01:23:56.639Z,99.16
2022-10-12T01:27:04.285Z,99.16
2022-10-12T01:30:12.185Z,99.26
2022-10-12T01:33:20.066Z,99.57
2022-10-12T01:36:28.120Z,99.68
2022-10-12T01:39:35.436Z,99.52
2022-10-12T01:42:43.515Z,99.47
2022-10-12T01:45:51.409Z,99.10
2022-10-12T01:48:58.789Z,98.79
2022-10-12T01:52:07.057Z,98.48
2022-10-12T01:55:14.531Z,98.17
2022-10-12T01:58:21.868Z,97.75
2022-10-12T02:01:30.067Z,97.65
2022-10-12T02:04:37.627Z,97.38
2022-10-12T02:07:45.300Z,97.07
2022-10-12T02:10:53.460Z,97.07
2022-10-12T02:14:00.710Z,96.66
2022-10-12T02:17:08.763Z,96.30
2022-10-12T02:20:17.341Z,96.34
2022-10-12T02:23:25.031Z,96.03
2022-10-12T02:26:33.168Z,95.93
2022-10-12T02:29:40.975Z,95.93
2022-10-12T02:32:48.813Z,95.72
2022-10-12T02:35:56.535Z,95.83
2022-10-12T02:39:04.104Z,95.87
2022-10-12T02:42:11.692Z,96.08
2022-10-12T02:45:19.654Z,96.66
2022-10-12T02:48:27.403Z,96.70
2022-10-12T02:51:35.175Z,96.91
2022-10-12T02:54:42.967Z,96.50
2022-10-12T02:57:51.286Z,96.60
2022-10-12T03:00:58.997Z,96.81
2022-10-12T03:04:06.708Z,96.91
2022-10-12T03:07:14.767Z,96.91
2022-10-12T03:10:22.407Z,96.81
2022-10-12T03:13:30.128Z,96.70
2022-10-12T03:16:38.079Z,96.70
2022-10-12T03:19:45.384Z,96.91
2022-10-12T03:22:53.371Z,96.81
2022-10-12T03:26:01.710Z,96.91
2022-10-12T03:29:09.040Z,96.81
2022-10-12T03:32:17.221Z,96.50
2022-10-12T03:35:25.291Z,95.98
2022-10-12T03:38:32.550Z,96.08
2022-10-12T03:41:40.531Z,96.08
2022-10-12T03:44:48.173Z,96.08
2022-10-12T03:47:55.901Z,96.29
2022-10-12T03:51:04.192Z,96.50
2022-10-12T03:54:11.882Z,96.60
2022-10-12T03:57:19.174Z,96.81
2022-10-12T04:00:27.348Z,96.75
2022-10-12T04:03:34.833Z,96.85
2022-10-12T04:06:42.582Z,96.85
2022-10-12T04:09:50.476Z,96.85
2022-10-12T04:12:58.345Z,96.54
2022-10-12T04:16:06.665Z,96.69
2022-10-12T04:19:14.559Z,96.89
2022-10-12T04:22:22.386Z,96.89
2022-10-12T04:25:30.532Z,96.95
2022-10-12T04:28:38.054Z,96.89
2022-10-12T04:31:45.621Z,97.00
2022-10-12T04:34:53.758Z,97.20
2022-10-12T04:38:01.336Z,97.20
2022-10-12T04:41:09.013Z,97.20
2022-10-12T04:44:16.869Z,97.41
2022-10-12T04:47:25.024Z,97.10
2022-10-12T04:50:32.797Z,97.83
2022-10-12T04:53:40.408Z,97.83
2022-10-12T04:56:48.534Z,97.58
2022-10-12T04:59:56.203Z,97.52
2022-10-12T05:03:03.950Z,97.62
2022-10-12T05:06:11.837Z,97.83
2022-10-12T05:09:19.556Z,98.03
2022-10-12T05:12:27.463Z,98.35
2022-10-12T05:15:35.243Z,98.86
2022-10-12T05:18:43.183Z,98.86
2022-10-12T05:21:51.315Z,99.03
2022-10-12T05:24:59.173Z,98.93
2022-10-12T05:28:06.921Z,98.82
2022-10-12T05:31:15.204Z,98.72
2022-10-12T05:34:23.186Z,98.41
2022-10-12T05:37:30.900Z,98.20
2022-10-12T05:40:38.859Z,98.10
2022-10-12T05:43:46.714Z,97.99
2022-10-12T05:46:54.354Z,97.99
2022-10-12T05:50:02.218Z,98.16
2022-10-12T05:53:09.530Z,98.26
2022-10-12T05:56:17.406Z,98.36
2022-10-12T05:59:25.681Z,98.78
2022-10-12T06:02:33.062Z,99.09
2022-10-12T06:05:41.361Z,99.51
2022-10-12T06:08:49.601Z,99.61
2022-10-12T06:11:57.002Z,99.66
2022-10-12T06:15:05.341Z,99.46
2022-10-12T06:18:12.903Z,99.66
2022-10-12T06:21:32.876Z,99.56
2022-10-12T06:24:26.033Z,99.52
2022-10-12T06:27:33.943Z,99.62
2022-10-12T06:30:41.558Z,99.72
2022-10-12T06:33:49.556Z,99.57
2022-10-12T06:37:01.644Z,99.47
2022-10-12T06:39:59.095Z,99.57
2022-10-12T06:43:06.795Z,99.63
2022-10-12T06:46:14.857Z,99.63
2022-10-12T06:49:22.566Z,99.52
2022-10-12T06:52:30.258Z,99.48
2022-10-12T06:55:38.390Z,99.58
2022-10-12T06:58:46.821Z,99.48
2022-10-12T07:01:54.945Z,99.43
2022-10-12T07:05:02.888Z,99.43
2022-10-12T07:08:11.028Z,99.08
2022-10-12T07:11:18.986Z,99.02
2022-10-12T07:14:26.810Z,99.08
2022-10-12T07:17:34.424Z,99.49
2022-10-12T07:20:42.832Z,99.65
2022-10-12T07:23:51.241Z,99.76
2022-10-12T07:26:58.507Z,99.82
2022-10-12T07:30:06.574Z,99.66
2022-10-12T07:33:14.343Z,99.41
2022-10-12T07:36:22.302Z,98.85
2022-10-12T07:39:31.474Z,98.39
2022-10-12T07:42:59.178Z,97.94
2022-10-12T07:45:44.566Z,97.58
2022-10-12T07:48:52.424Z,96.81
2022-10-12T07:51:59.846Z,96.15
2022-10-12T07:55:07.858Z,95.59
2022-10-12T07:58:15.866Z,94.83
2022-10-12T08:01:23.351Z,93.55
2022-10-12T08:04:31.483Z,92.17
2022-10-12T08:07:39.436Z,91.51
2022-10-12T08:10:47.247Z,91.00
2022-10-12T08:13:55.280Z,91.31
2022-10-12T08:17:03.877Z,91.27
2022-10-12T08:20:12.254Z,91.53
2022-10-12T08:23:21.211Z,91.02
2022-10-12T08:26:29.248Z,90.16
2022-10-12T08:29:36.899Z,89.19
2022-10-12T08:32:45.118Z,88.98
2022-10-12T08:35:52.955Z,88.78
2022-10-12T08:39:00.582Z,88.43
2022-10-12T08:42:09.434Z,87.92
2022-10-12T08:45:17.805Z,86.85
2022-10-12T08:48:25.605Z,86.81
2022-10-12T08:51:32.950Z,86.40
2022-10-12T08:54:41.077Z,85.85
2022-10-12T08:57:50.032Z,85.24
2022-10-12T09:00:57.929Z,84.48
2022-10-12T09:04:05.897Z,83.87
2022-10-12T09:07:13.209Z,84.03
2022-10-12T09:10:21.148Z,83.52
2022-10-12T09:13:29.391Z,83.52
2022-10-12T09:16:36.731Z,82.67
2022-10-12T09:19:44.840Z,83.69
2022-10-12T09:22:52.852Z,82.22
2022-10-12T09:26:00.253Z,81.60
2022-10-12T09:29:08.077Z,80.24
2022-10-12T09:32:15.652Z,79.39
2022-10-12T09:35:23.402Z,79.08
2022-10-12T09:38:31.306Z,78.27
2022-10-12T09:41:39.057Z,78.74
2022-10-12T09:44:46.836Z,77.72
2022-10-12T09:47:54.778Z,77.51
2022-10-12T09:51:02.551Z,76.97
2022-10-12T09:54:10.250Z,76.05
2022-10-12T09:57:18.021Z,76.87
2022-10-12T10:00:26.312Z,77.03
2022-10-12T10:03:34.169Z,74.76
2022-10-12T10:06:41.944Z,76.28
2022-10-12T10:09:50.084Z,75.02
2022-10-12T10:12:57.435Z,74.32
2022-10-12T10:16:05.655Z,74.79
2022-10-12T10:19:13.829Z,74.28
2022-10-12T10:22:21.128Z,73.02
2022-10-12T10:25:29.134Z,71.97
2022-10-12T10:28:37.602Z,72.28
2022-10-12T10:31:44.870Z,71.36
2022-10-12T10:34:53.009Z,70.62
2022-10-12T10:38:01.282Z,69.20
2022-10-12T10:41:08.641Z,68.69
2022-10-12T10:44:21.635Z,68.59
2022-10-12T10:47:18.822Z,68.25
2022-10-12T10:50:26.457Z,68.05
2022-10-12T10:53:34.564Z,67.91
2022-10-12T10:56:42.426Z,67.41
2022-10-12T10:59:50.185Z,66.66
2022-10-12T11:02:57.777Z,67.68
2022-10-12T11:06:06.066Z,65.82
2022-10-12T11:09:13.932Z,65.31
2022-10-12T11:12:21.339Z,65.72
2022-10-12T11:15:29.551Z,64.98
2022-10-12T11:18:37.592Z,65.08
2022-10-12T11:21:45.691Z,63.73
2022-10-12T11:24:54.297Z,62.54
2022-10-12T11:28:02.144Z,63.93
2022-10-12T11:31:10.635Z,62.92
2022-10-12T11:34:19.109Z,63.23
2022-10-12T11:37:26.829Z,63.02
2022-10-12T11:41:02.607Z,63.09
2022-10-12T11:43:39.936Z,61.88
2022-10-12T11:46:47.250Z,63.70
2022-10-12T11:49:55.509Z,62.99
2022-10-12T11:53:03.332Z,63.09
2022-10-12T11:56:11.059Z,62.86
2022-10-12T11:59:18.924Z,61.55
2022-10-12T12:02:26.552Z,62.63
2022-10-12T12:05:34.386Z,62.12
2022-10-12T12:08:42.577Z,60.91
2022-10-12T12:11:50.705Z,61.29
2022-10-12T12:14:58.993Z,61.99
2022-10-12T12:18:06.753Z,61.69
2022-10-12T12:21:15.043Z,61.99
2022-10-12T12:24:22.968Z,61.11
2022-10-12T12:27:30.733Z,62.23
2022-10-12T12:30:38.731Z,60.81
2022-10-12T12:33:46.749Z,59.87
2022-10-12T12:36:54.419Z,61.19
2022-10-12T12:40:02.981Z,59.14
2022-10-12T12:43:11.254Z,60.14
2022-10-12T12:46:18.982Z,58.63
2022-10-12T12:49:27.435Z,59.27
2022-10-12T12:52:35.446Z,58.36
2022-10-12T12:55:43.654Z,59.87
2022-10-12T12:58:51.924Z,60.98
2022-10-12T13:01:59.695Z,60.38
2022-10-12T13:05:08.370Z,61.01
2022-10-12T13:08:16.652Z,60.10
2022-10-12T13:11:24.598Z,60.71
2022-10-12T13:14:33.183Z,60.71
2022-10-12T13:17:41.527Z,59.80
2022-10-12T13:20:49.645Z,60.41
2022-10-12T13:23:58.115Z,59.80
2022-10-12T13:27:06.111Z,60.50
2022-10-12T13:30:14.102Z,58.89
2022-10-12T13:33:22.086Z,60.81
2022-10-12T13:36:30.710Z,59.90
2022-10-12T13:39:38.827Z,60.10
2022-10-12T13:42:46.895Z,60.50
2022-10-12T13:45:55.460Z,60.00
2022-10-12T13:49:03.575Z,59.22
2022-10-12T13:52:11.814Z,60.53
2022-10-12T13:55:20.148Z,60.03
2022-10-12T13:58:27.796Z,59.83
2022-10-12T14:01:35.829Z,60.57
2022-10-12T14:04:44.445Z,61.58
2022-10-12T14:07:52.101Z,60.97
2022-10-12T14:11:00.500Z,60.16
2022-10-12T14:14:09.090Z,61.88
2022-10-12T14:17:16.850Z,61.17
2022-10-12T14:20:25.293Z,61.07
2022-10-12T14:23:32.961Z,60.26
2022-10-12T14:26:41.375Z,60.26
2022-10-12T14:29:49.837Z,60.84
2022-10-12T14:32:59.821Z,61.75
2022-10-12T14:36:08.040Z,60.57
2022-10-12T14:39:16.387Z,62.69
2022-10-12T14:42:23.889Z,62.72
2022-10-12T14:45:32.391Z,62.52
2022-10-12T14:48:40.848Z,64.67
2022-10-12T14:51:48.624Z,64.10
2022-10-12T14:54:57.299Z,63.89
2022-10-12T14:58:05.301Z,62.27
2022-10-12T15:01:13.351Z,62.95
2022-10-12T15:04:22.014Z,62.75
2022-10-12T15:07:30.075Z,64.81
2022-10-12T15:10:38.188Z,64.64
2022-10-12T15:13:46.699Z,68.49
2022-10-12T15:16:54.957Z,68.52
2022-10-12T15:20:03.119Z,69.57
2022-10-12T15:23:11.810Z,71.12
2022-10-12T15:26:19.750Z,72.04
2022-10-12T15:29:27.610Z,71.16
2022-10-12T15:32:35.672Z,70.75
2022-10-12T15:35:44.224Z,72.17
2022-10-12T15:38:51.821Z,72.17
2022-10-12T15:42:00.157Z,71.67
2022-10-12T15:45:08.644Z,70.86
2022-10-12T15:48:16.784Z,72.17
2022-10-12T15:51:24.830Z,72.17
2022-10-12T15:54:33.008Z,72.99
2022-10-12T15:57:40.640Z,72.41
2022-10-12T16:00:49.135Z,74.55
2022-10-12T16:03:57.872Z,74.96
2022-10-12T16:07:05.600Z,76.59
2022-10-12T16:10:14.082Z,76.82
2022-10-12T16:13:22.584Z,77.17
2022-10-12T16:16:30.230Z,76.96
2022-10-12T16:19:38.582Z,77.71
2022-10-12T16:22:46.643Z,79.27
2022-10-12T16:25:54.667Z,79.48
2022-10-12T16:29:03.107Z,79.00
2022-10-12T16:32:11.127Z,79.86
2022-10-12T16:35:18.928Z,79.66
2022-10-12T16:38:27.431Z,80.00
2022-10-12T16:41:35.417Z,80.65
2022-10-12T16:44:43.356Z,80.75
2022-10-12T16:47:51.783Z,81.30
2022-10-12T16:50:59.603Z,82.12
2022-10-12T16:54:07.452Z,83.38
2022-10-12T16:57:15.635Z,83.83
2022-10-12T17:00:23.739Z,84.34
2022-10-12T17:03:31.812Z,84.48
2022-10-12T17:06:39.282Z,85.10
2022-10-12T17:09:47.188Z,85.71
2022-10-12T17:12:54.988Z,86.46
2022-10-12T17:16:02.813Z,86.67
2022-10-12T17:22:01.597Z,86.61
2022-10-12T17:25:10.003Z,86.85
2022-10-12T17:28:18.294Z,87.06
2022-10-12T17:31:26.470Z,87.16
2022-10-12T17:34:35.005Z,87.06
2022-10-12T17:37:42.774Z,87.51
2022-10-12T17:40:53.111Z,87.71
2022-10-12T17:44:01.284Z,87.92
2022-10-12T17:47:09.369Z,88.27
2022-10-12T17:50:16.941Z,88.27
2022-10-12T17:53:24.586Z,88.37
2022-10-12T17:56:32.767Z,88.37
2022-10-12T17:59:41.269Z,87.96
2022-10-12T18:02:49.307Z,87.70
2022-10-12T18:05:57.239Z,86.73
2022-10-12T18:09:06.501Z,86.11
2022-10-12T18:12:15.013Z,85.56
2022-10-12T18:15:24.085Z,84.95
2022-10-12T18:18:32.671Z,84.74
2022-10-12T18:21:41.426Z,84.33
2022-10-12T18:24:49.911Z,84.12
2022-10-12T18:27:58.465Z,84.03
2022-10-12T18:31:07.148Z,83.61
2022-10-12T18:34:17.673Z,83.51
2022-10-12T18:37:27.697Z,83.20
2022-10-12T18:40:27.389Z,82.90
2022-10-12T18:43:27.898Z,83.31
2022-10-12T18:46:29.261Z,83.00
2022-10-12T18:49:39.209Z,83.00
2022-10-12T18:52:49.123Z,83.00
2022-10-12T18:55:54.574Z,83.00
2022-10-12T18:58:55.654Z,83.10
2022-10-12T19:01:55.835Z,83.20
2022-10-12T19:05:06.136Z,83.86
2022-10-12T19:08:08.595Z,84.99
2022-10-12T19:11:18.500Z,85.23
2022-10-12T19:15:07.135Z,85.54
2022-10-12T19:18:08.865Z,85.47
2022-10-12T19:21:09.050Z,85.03
2022-10-12T19:24:09.469Z,84.82
2022-10-12T19:27:20.529Z,85.33
2022-10-12T19:30:29.391Z,85.17
2022-10-12T19:33:39.379Z,85.17
2022-10-12T19:36:48.010Z,85.27
2022-10-12T19:39:56.160Z,85.58
2022-10-12T19:43:05.792Z,85.93
2022-10-12T19:46:13.422Z,86.03
2022-10-12T19:49:22.135Z,86.33
2022-10-12T19:52:31.404Z,86.58
2022-10-12T19:55:31.046Z,86.99
2022-10-12T19:58:40.604Z,87.40
2022-10-12T20:01:49.177Z,87.75
2022-10-12T20:04:57.793Z,87.96
2022-10-12T20:08:07.016Z,88.41
2022-10-12T20:11:04.182Z,88.72
2022-10-12T20:14:12.436Z,88.82
2022-10-12T20:17:21.119Z,89.03
2022-10-12T20:20:29.242Z,89.03
2022-10-12T20:23:37.278Z,88.72
2022-10-12T20:26:45.621Z,88.72
2022-10-12T20:29:54.010Z,88.72
2022-10-12T20:33:01.591Z,88.82
2022-10-12T20:36:09.273Z,88.82
2022-10-12T20:39:17.672Z,88.82
2022-10-12T20:42:25.774Z,88.92
2022-10-12T20:45:34.739Z,89.13
2022-10-12T20:48:42.443Z,89.13
2022-10-12T20:51:50.033Z,89.34
2022-10-12T20:54:57.873Z,89.34
2022-10-12T20:58:05.095Z,89.75
2022-10-12T21:01:13.412Z,89.50
2022-10-12T21:04:21.328Z,89.36
2022-10-12T21:07:29.384Z,88.64
2022-10-12T21:10:40.112Z,87.77
2022-10-12T21:13:48.499Z,86.95
2022-10-12T21:16:56.454Z,86.50
2022-10-12T21:20:04.177Z,86.54
2022-10-12T21:23:12.481Z,86.54
2022-10-12T21:26:19.822Z,86.75
2022-10-12T21:29:27.710Z,87.05
2022-10-12T21:32:36.071Z,87.40
2022-10-12T21:35:43.292Z,87.92
2022-10-12T21:38:51.523Z,88.12
2022-10-12T21:41:59.545Z,88.43
2022-10-12T21:45:06.826Z,88.29
2022-10-12T21:48:14.795Z,87.88
2022-10-12T21:51:23.103Z,87.63
2022-10-12T21:54:30.544Z,87.53
2022-10-12T21:57:38.618Z,87.98
2022-10-12T22:00:46.312Z,87.98
2022-10-12T22:03:54.007Z,87.67
2022-10-12T22:07:02.077Z,87.77
2022-10-12T22:10:09.829Z,88.08
2022-10-12T22:13:17.710Z,88.18
2022-10-12T22:16:25.937Z,88.43
2022-10-12T22:19:27.440Z,88.53
2022-10-12T22:22:35.201Z,89.15
2022-10-12T22:25:43.553Z,89.50
2022-10-12T22:28:51.127Z,89.60
2022-10-12T22:31:58.782Z,89.81
2022-10-12T22:35:07.134Z,90.01
2022-10-12T22:38:14.831Z,89.87
2022-10-12T22:41:22.684Z,89.87
2022-10-12T22:44:30.527Z,89.66
2022-10-12T22:47:38.333Z,89.76
2022-10-12T22:50:46.584Z,89.56
2022-10-12T22:53:54.499Z,89.56
2022-10-12T22:57:02.480Z,89.52
2022-10-12T23:00:10.666Z,89.46
2022-10-12T23:03:18.252Z,89.52
2022-10-12T23:06:26.093Z,89.52
2022-10-12T23:09:34.451Z,89.52
2022-10-12T23:12:42.389Z,89.52
2022-10-12T23:15:50.246Z,89.52
2022-10-12T23:18:59.462Z,89.62
2022-10-12T23:22:07.915Z,89.66
2022-10-12T23:25:15.777Z,89.66
2022-10-12T23:28:23.503Z,89.56
2022-10-12T23:31:31.687Z,89.66
2022-10-12T23:34:38.960Z,89.87
2022-10-12T23:37:47.172Z,89.91
2022-10-12T23:40:55.239Z,90.12
2022-10-12T23:44:02.790Z,90.42
2022-10-12T23:47:11.107Z,90.67
2022-10-12T23:50:18.981Z,90.88
2022-10-12T23:53:26.681Z,90.88
2022-10-12T23:56:35.074Z,91.08
2022-10-12T23:59:42.998Z,90.98
